x

New Dungeness - 17 Nm Ne Of Port Angeles, Wa (46088) Wave Buoy

6:50 - Thu 3rd Sep 2015 All times are PDT. -7 hours from GMT.

  • Sig Wave height 1.0ft
  • Swell Direction
  • Peak Period 6s
  • Average Period 5s
  • Wind
    4mph
  • Sea Temp 51°f
  • Aire Temp 51°f
  • Sea Pressure 1015.7mb
  • New Dungeness - 17 Nm Ne Of Port Angeles, Wa
  • New Dungeness - 17 Nm Ne Of Port Angeles, Wa

More Historic Weather Station data

Upgrade to MSW Pro to gain access to the past 30 days of data for over 8000 Wavebouys and Weather Stations around the globe.

Join Pro

Comparision Forecast

View Surf forecast
   
jue 09/03 6:50 1ft 6s 5s 4
mph
1015.7mb 51f 51f
6:20 1ft 7s 5s 2 4 mph 1015.4mb 51f 51f
5:50 1ft 6s 5s 4
mph
1015.2mb 51f 52f
5:20 1ft 8s 5s 7 9 mph 1015.3mb 51f 52f
4:50 1ft 7s 5s 7
mph
1015.1mb 51f 52f
4:20 1ft 8s 5s 7
mph
1015.1mb 51f 52f
3:50 1ft 8s 5s 4 7 mph 1014.9mb 51f 52f
3:20 1.3ft 10s 7s 7
mph
1014.8mb 51f 53f
2:50 1ft 10s 7s 7 9 mph 1014.7mb 51f 52f
2:20 0.7ft  -  5s 4 7 mph 1014.7mb 51f 52f
1:50 0.7ft  -  5s 4 7 mph 1014.6mb 51f 52f
1:20 0.7ft  -  5s 7
mph
1014.4mb 51f 52f
12:50 0.7ft  -  4s 4 7 mph 1014.4mb 51f 52f
12:20 1ft 4s 4s 7
mph
1014.3mb 51f 52f
mié 09/02 11:50 1ft 4s 4s 9 11 mph 1014.3mb 51f 52f
11:20 1ft 3s 3s 16 18 mph 1014.1mb 51f 52f
10:50 0.7ft  -  3s 11 13 mph 1014.2mb 51f 53f
10:20 0.7ft  -  5s 11 13 mph 1013.8mb 51f 53f
9:50 0.7ft  -  6s 9 11 mph 1014mb 51f 54f
9:20 0.7ft  -  4s 11 18 mph 1014.4mb 52f 54f
8:50 0.7ft  -  4s 7
mph
1013.9mb 52f 53f
8:20 0.7ft  -  5s 7
mph
1013.6mb 52f 53f
7:50 0.7ft  -  4s 4
mph
1013.4mb 52f 52f
7:20 0.7ft  -  4s 4
mph
1013.3mb 52f 52f
6:50 0.3ft  -  4s 4
mph
1013.4mb 52f 53f
6:20 0.7ft  -  4s 2 4 mph 1013.3mb 53f 53f
5:50 0.7ft  -  4s 7
mph
1013.1mb 52f 53f
5:20 0.7ft  -  4s 4
mph
1013mb 52f 54f
4:50 0.7ft  -  4s 7 9 mph 1013.1mb 53f 54f
4:20 0.7ft  -  4s 4
mph
1013mb 53f 53f
3:50 0.7ft  -  4s 11 16 mph 1013.1mb 53f 54f
3:20 1ft 11s 5s 13 16 mph 1013mb 53f 53f
2:50 0.7ft  -  4s 2 4 mph 1012.6mb 54f 57f
2:20 0.7ft  -  3s 2 4 mph 1012.5mb 53f 56f
1:50 0.7ft  -  3s 2 4 mph 1012.4mb 52f 56f
1:20 1ft 11s 4s 11 13 mph 1011.9mb 52f 56f
12:50 1.3ft 11s 3s 13
mph
1012mb 52f 55f
12:20 1ft 12s 3s 13 16 mph 1012mb 52f 55f
11:50 1ft 8s 3s 13 16 mph 1012.1mb 52f 55f
11:20 0.7ft  -  3s 13 18 mph 1011.9mb 51f 54f
10:50 0.7ft  -  3s 16 18 mph 1011.6mb 52f 54f
10:20 0.7ft  -  5s 11 13 mph 1011.7mb 51f 54f
9:50 0.7ft  -  6s 9 11 mph 1011.6mb 51f 53f
9:20 1ft 11s 6s 2 4 mph 1011.9mb 51f 53f
8:50 0.7ft  -  5s 9
mph
1011.3mb 51f 52f
8:20 0.7ft  -  5s 4 7 mph 1011.6mb 51f 52f
7:50 0.7ft  -  4s 4 7 mph 1011.1mb 51f 52f
7:20 0.7ft  -  3s 7 9 mph 1010.6mb 51f 53f
6:50 0.7ft  -  3s 7
mph
1009.9mb 51f 53f
6:20 0.7ft  -  3s 9
mph
1009.7mb 51f 53f
5:50 1ft 3s 3s 9 11 mph 1009.4mb 51f 54f
5:20 1.3ft 3s 3s 9 11 mph 1009.3mb 51f 53f
4:50 1.3ft 3s 3s 11 13 mph 1009.2mb 51f 53f
4:20 1ft 3s 3s 9
mph
1009.2mb 51f 53f
3:50 1ft 9s 4s 11 13 mph 1009mb 51f 53f
3:20 1ft 10s 4s 11
mph
1008.8mb 51f 53f
2:50 1ft 10s 4s 11 13 mph 1008.8mb 51f 53f
2:20 0.7ft  -  4s 11 13 mph 1008.5mb 51f 53f
1:50 0.7ft  -  4s 9 13 mph 1008.4mb 51f 54f
1:20 0.7ft  -  4s 11 13 mph 1008.4mb 51f 54f
12:50 0.7ft  -  5s 13 16 mph 1008.1mb 51f 54f
12:20 0.7ft  -  4s 9 13 mph 1008.3mb 51f 53f
mar 09/01 11:50 0.7ft  -  4s 7
mph
1008.3mb 51f 53f
11:20 0.7ft  -  4s 13 18 mph 1008mb 52f 54f
10:50 0.7ft  -  4s 18 22 mph 1007.7mb 52f 55f
10:20 0.7ft  -  4s 16 18 mph 1007.8mb 52f 55f
9:50 0.7ft  -  4s 9 11 mph 1007.7mb 52f 55f
9:20 0.7ft  -  3s 9 11 mph 1007.5mb 52f 55f
8:50 1ft 11s 7s 18 20 mph 1007.4mb 53f 56f
8:20 0.7ft  -  5s 7 9 mph 1007.4mb 53f 55f
7:50 0.7ft  -  5s 9 11 mph 1006.9mb 53f 55f
7:20 0.7ft  -  5s 9 11 mph 1007.3mb 53f 55f
6:50 0.7ft  -  5s 9 11 mph 1007.5mb 53f 56f
6:20 0.3ft  -  4s 2 4 mph 1007.5mb 53f 57f
5:50 0.7ft  -  4s 2
mph
1007.9mb 52f 57f
5:20 0.7ft  -  5s 2
mph
1008mb 53f 55f
4:50 0.7ft  -  4s 2
mph
1007.9mb 53f 56f
4:20 0.3ft  -  4s  -  2 mph 1008.4mb 53f 55f
3:50 0.3ft  -  4s 2
mph
1008.7mb 53f 54f
3:20 0.3ft  -  5s 7 9 mph 1008.9mb 53f 54f
2:50 0.7ft  -  5s 7 9 mph 1009.4mb 53f 54f
2:20 0.7ft  -  7s 9
mph
1009.3mb 53f 55f
1:50 1ft 11s 7s 7
mph
1009.3mb 53f 55f
1:20 0.7ft  -  6s 4
mph
1009.7mb 52f 55f
12:50 0.7ft  -  5s 2
mph
1010.2mb 52f 55f
12:20 0.7ft  -  4s 7 9 mph 1009.9mb 52f 56f
11:50 0.7ft  -  5s 2 4 mph 1010.2mb 52f 56f
11:20 0.7ft  -  6s 4
mph
1010.4mb 52f 55f
10:50 0.7ft  -  5s 7 9 mph 1010.1mb 52f 55f
10:20 0.7ft  -  5s 7 9 mph 1010mb 52f 55f
9:50 0.7ft  -  5s 4 7 mph 1010.2mb 52f 55f
9:20 0.7ft  -  6s 7 9 mph 1010.4mb 52f 55f
8:50 0.7ft  -  6s 7 9 mph 1010.5mb 52f 54f
8:20 0.7ft  -  5s 7 9 mph 1010.3mb 52f 54f
7:50 0.3ft  -  4s 7
mph
1010.1mb 52f 54f
7:20 0.7ft  -  4s 7
mph
1010.3mb 52f 54f
6:50 0.7ft  -  4s 7
mph
1010.5mb 52f 54f
6:20 0.7ft  -  4s 7
mph
1010.5mb 52f 53f
5:50 0.7ft  -  4s 9
mph
1010.6mb 52f 54f
5:20 0.7ft  -  4s 11
mph
1010.7mb 52f 55f
4:50 0.7ft  -  4s 13
mph
1010.6mb 52f 55f
4:20 0.7ft  -  4s 13 16 mph 1010.6mb 52f 55f
3:50 0.7ft  -  4s 9 11 mph 1010.6mb 53f 55f
3:20 0.7ft  -  5s 2 4 mph 1010.4mb 53f 54f
2:50 0.7ft  -  6s 4
mph
1010.3mb 52f 54f
2:20 0.7ft  -  5s 4 7 mph 1010.5mb 52f 54f
1:50 0.7ft  -  4s 11 13 mph 1010.1mb 52f 53f
1:20 0.7ft  -  5s 2 4 mph 1009.5mb 52f 54f
12:50 0.7ft  -  5s 4
mph
1009.5mb 52f 54f
12:20 0.3ft  -  5s 4 7 mph 1009.9mb 52f 54f
lun 08/31 11:50 0.7ft  -  5s 7 9 mph 1010mb 53f 54f
11:20 0.3ft  -  4s 13 16 mph 1009.6mb 53f 55f
10:50 0.7ft  -  5s 4 7 mph 1010.5mb 53f 54f
10:20 0.7ft  -  5s 7
mph
1010.5mb 53f 55f
9:50 0.7ft  -  4s 4
mph
1010.4mb 53f 56f
9:20 0.7ft  -  5s 2 4 mph 1010.3mb 53f 56f
8:50 0.7ft  -  4s 2
mph
1010.2mb 53f 57f
8:20 0.7ft  -  5s 2
mph
1010.2mb 53f 57f
7:50 0.7ft  -  4s  -  2 mph 1010.2mb 53f 57f
7:20 0.7ft  -  4s 2 4 mph 1010.2mb 53f 58f
6:50 0.3ft  -  4s 4 7 mph 1010.5mb 52f 57f
6:20 0.7ft  -  4s 4
mph
1011.1mb 53f 58f
5:50 0.7ft  -  4s  -  2 mph 1011.2mb 53f 57f
5:20 0.7ft  -  4s 4
mph
1011.5mb 53f 55f
4:50 0.7ft  -  4s 2 4 mph 1011.5mb 53f 56f
3:50 1ft 10s 6s 7 9 mph 1011.4mb 53f 56f
3:20 0.7ft  -  4s 2 4 mph 1011.9mb 53f 59f
2:50 1ft 3s 4s 2 7 mph 1012mb 53f 57f
2:20 1ft 8s 4s  -  2 mph 1012.2mb 53f 55f
1:50 1ft 8s 4s 2
mph
1012mb 53f 56f
1:20 1ft 10s 4s 2
mph
1012mb 53f 55f
12:50 1ft 10s 4s 4 7 mph 1011.9mb 53f 55f
12:20 1ft 11s 3s 4
mph
1011.9mb 53f 54f
11:50 1ft 2s 3s 2 4 mph 1012.2mb 53f 55f
11:20 1ft 11s 3s 2 4 mph 1012.4mb 53f 55f
10:50 1ft 3s 3s 2
mph
1012.1mb 53f 55f
10:20 1ft 3s 3s 7
mph
1011.9mb 53f 54f
9:50 1ft 3s 3s 7 9 mph 1011.8mb 53f 54f
9:20 0.7ft  -  3s 7 9 mph 1012.1mb 53f 53f
8:50 0.7ft  -  3s 7
mph
1012mb 53f 53f
8:20 0.7ft  -  3s 7 9 mph 1012.1mb 52f 53f
7:50 1ft 3s 3s 4 7 mph 1012mb 52f 53f
7:20 1ft 3s 4s 4
mph
1011.9mb 52f 53f
6:50 1ft 3s 4s 4
mph
1012mb 52f 53f
6:20 1ft 3s 4s  -  2 mph 1011.2mb 52f 54f
5:50 0.7ft  -  4s 2 4 mph 1011.4mb 52f 55f
5:20 0.7ft  -  4s 4
mph
1011.1mb 53f 55f
4:50 0.7ft  -  4s  -  4 mph 1011.1mb 53f 55f
4:20 0.7ft  -  4s 4 7 mph 1011.1mb 53f 55f
3:50 0.7ft  -  3s 7 9 mph 1011.4mb 53f 54f
3:20 0.7ft  -  3s 4 7 mph 1011.4mb 53f 55f
2:50 0.7ft  -  3s 7
mph
1011.2mb 53f 55f
2:20 0.7ft  -  4s 4
mph
1011.2mb 53f 54f
1:50 0.7ft  -  5s 4 7 mph 1011.3mb 53f 54f
1:20 0.3ft  -  5s 2 4 mph 1011.1mb 53f 56f
12:50 0.3ft  -  5s 4 7 mph 1011.4mb 53f 56f
12:20 0.7ft  -  5s 9 11 mph 1011.5mb 53f 56f
dom 08/30 11:50 0.3ft  -  4s 9
mph
1011.7mb 53f 55f
11:20 0.3ft  -  4s 7 9 mph 1012.3mb 53f 56f
10:50 0.3ft  -  4s 9 11 mph 1012.2mb 54f 55f
10:20 0.3ft  -  3s 9
mph
1012.7mb 54f 55f
9:50 0.3ft  -  3s 7 9 mph 1012.7mb 54f 55f
9:20 0.3ft  -  3s 4 9 mph 1013.1mb 54f 56f
8:50 0.7ft  -  4s 2 4 mph 1013.3mb 54f 58f
8:20 0.7ft  -  4s 2 4 mph 1013.3mb 54f 59f
7:50 0.7ft  -  5s 7 9 mph 1013.1mb 53f 60f
7:20 0.3ft  -  4s 4 7 mph 1013.2mb 53f 61f
6:50 0.3ft  -  4s 7 9 mph 1013.1mb 53f 59f
6:20 0.3ft  -  4s 7
mph
1013.1mb 54f 57f
5:50 0.3ft  -  4s 4 7 mph 1013mb 54f 56f
5:20 0.7ft  -  4s 9 11 mph 1013.1mb 54f 57f
4:50 0.3ft  -  4s 2 4 mph 1012.9mb 54f 60f
4:20 0.3ft  -  4s 2
mph
1012.7mb 54f 59f
3:50 0.7ft  -  5s 4 7 mph 1012.7mb 55f 60f
3:20 0.7ft  -  5s  -  2 mph 1012.7mb 55f 60f
2:50 0.7ft  -  5s 7
mph
1012.9mb 54f 57f